createdAt,value
2018-07-06T00:02:27.443Z,20.33
2018-07-06T00:05:06.964Z,20.14
2018-07-06T00:07:46.369Z,20.24
2018-07-06T00:10:26.008Z,20.25
2018-07-06T00:13:06.316Z,20.24
2018-07-06T00:15:46.028Z,20.23
2018-07-06T00:18:25.594Z,20.25
2018-07-06T00:21:05.301Z,20.21
2018-07-06T00:23:44.759Z,20.20
2018-07-06T00:26:24.305Z,20.04
2018-07-06T00:29:03.883Z,20.08
2018-07-06T00:31:44.059Z,20.05
2018-07-06T00:34:23.436Z,20.02
2018-07-06T00:37:02.960Z,19.97
2018-07-06T00:39:42.371Z,19.92
2018-07-06T00:42:21.961Z,19.86
2018-07-06T00:45:01.444Z,19.85
2018-07-06T00:47:41.043Z,19.93
2018-07-06T00:50:20.598Z,19.92
2018-07-06T00:53:00.240Z,19.98
2018-07-06T00:55:39.801Z,20.03
2018-07-06T00:58:23.449Z,20.00
2018-07-06T01:01:03.191Z,20.04
2018-07-06T01:03:42.962Z,20.07
2018-07-06T01:06:22.588Z,20.01
2018-07-06T01:09:02.044Z,19.98
2018-07-06T01:11:41.517Z,19.97
2018-07-06T01:14:21.169Z,19.96
2018-07-06T01:17:00.912Z,19.92
2018-07-06T01:19:40.529Z,19.94
2018-07-06T01:22:19.950Z,19.94
2018-07-06T01:25:00.503Z,19.93
2018-07-06T01:27:40.035Z,19.86
2018-07-06T01:30:19.493Z,19.90
2018-07-06T01:32:59.021Z,19.90
2018-07-06T01:35:38.653Z,20.00
2018-07-06T01:38:18.228Z,19.95
2018-07-06T01:40:58.092Z,19.91
2018-07-06T01:43:37.535Z,19.90
2018-07-06T01:46:17.308Z,19.89
2018-07-06T01:48:56.875Z,19.95
2018-07-06T01:51:36.585Z,19.89
2018-07-06T01:54:16.216Z,19.90
2018-07-06T01:56:55.710Z,19.85
2018-07-06T01:59:35.318Z,19.97
2018-07-06T02:02:14.855Z,20.02
2018-07-06T02:04:54.342Z,19.92
2018-07-06T02:07:34.031Z,19.91
2018-07-06T02:10:13.612Z,19.87
2018-07-06T02:12:53.232Z,19.86
2018-07-06T02:15:32.872Z,19.82
2018-07-06T02:18:12.504Z,19.82
2018-07-06T02:20:52.080Z,19.82
2018-07-06T02:23:31.982Z,19.83
2018-07-06T02:26:11.531Z,19.83
2018-07-06T02:28:51.464Z,19.87
2018-07-06T02:31:31.087Z,19.82
2018-07-06T02:34:11.345Z,19.87
2018-07-06T02:36:50.939Z,19.86
2018-07-06T02:39:30.851Z,19.89
2018-07-06T02:42:10.425Z,19.81
2018-07-06T02:44:50.115Z,19.84
2018-07-06T02:47:29.606Z,19.89
2018-07-06T02:50:09.146Z,19.85
2018-07-06T02:52:48.688Z,19.76
2018-07-06T02:55:28.347Z,19.82
2018-07-06T02:58:07.965Z,19.74
2018-07-06T03:00:47.520Z,19.75
2018-07-06T03:03:27.155Z,19.76
2018-07-06T03:06:06.796Z,19.81
2018-07-06T03:08:46.384Z,19.76
2018-07-06T03:11:26.055Z,19.80
2018-07-06T03:14:05.537Z,19.86
2018-07-06T03:16:45.156Z,19.73
2018-07-06T03:19:24.816Z,19.64
2018-07-06T03:22:04.444Z,19.68
2018-07-06T03:24:43.914Z,19.71
2018-07-06T03:27:23.536Z,19.77
2018-07-06T03:30:03.205Z,19.69
2018-07-06T03:32:42.813Z,19.78
2018-07-06T03:35:22.427Z,19.55
2018-07-06T03:38:02.173Z,19.93
2018-07-06T03:40:41.832Z,19.96
2018-07-06T03:43:21.528Z,19.94
2018-07-06T03:46:01.376Z,19.74
2018-07-06T03:48:41.009Z,19.78
2018-07-06T03:51:20.838Z,19.92
2018-07-06T03:54:00.539Z,19.72
2018-07-06T03:56:40.005Z,19.74
2018-07-06T03:59:19.561Z,19.58
2018-07-06T04:01:59.161Z,19.63
2018-07-06T04:04:38.701Z,19.67
2018-07-06T04:07:18.244Z,19.69
2018-07-06T04:09:57.823Z,19.71
2018-07-06T04:12:37.578Z,19.66
2018-07-06T04:15:17.282Z,19.66
2018-07-06T04:17:56.936Z,19.83
2018-07-06T04:20:37.220Z,19.82
2018-07-06T04:23:16.840Z,19.82
2018-07-06T04:25:56.556Z,19.84
2018-07-06T04:28:36.224Z,19.88
2018-07-06T04:31:15.748Z,19.86
2018-07-06T04:33:55.316Z,19.84
2018-07-06T04:36:34.801Z,19.87
2018-07-06T04:39:14.266Z,19.98
2018-07-06T04:41:53.946Z,20.07
2018-07-06T04:44:33.438Z,19.97
2018-07-06T04:47:13.013Z,20.02
2018-07-06T04:49:52.410Z,20.00
2018-07-06T04:52:31.916Z,20.05
2018-07-06T04:55:11.562Z,19.99
2018-07-06T04:57:51.206Z,20.14
2018-07-06T05:00:30.716Z,19.95
2018-07-06T05:03:10.217Z,20.13
2018-07-06T05:05:49.737Z,20.31
2018-07-06T05:08:29.339Z,20.32
2018-07-06T05:11:08.847Z,20.22
2018-07-06T05:13:48.381Z,20.25
2018-07-06T05:16:28.016Z,20.40
2018-07-06T05:19:07.731Z,20.25
2018-07-06T05:21:47.440Z,20.33
2018-07-06T05:24:27.045Z,20.45
2018-07-06T05:27:06.683Z,20.44
2018-07-06T05:29:46.291Z,20.34
2018-07-06T05:32:25.926Z,20.43
2018-07-06T05:35:05.496Z,20.44
2018-07-06T05:37:45.087Z,20.34
2018-07-06T05:40:24.568Z,20.25
2018-07-06T05:43:04.209Z,20.29
2018-07-06T05:45:43.651Z,20.36
2018-07-06T05:48:23.156Z,20.61
2018-07-06T05:51:02.529Z,20.40
2018-07-06T05:53:42.194Z,20.38
2018-07-06T05:56:21.604Z,20.48
2018-07-06T06:02:11.218Z,20.65
2018-07-06T06:04:50.800Z,20.45
2018-07-06T06:07:23.897Z,20.41
2018-07-06T06:09:52.388Z,20.52
2018-07-06T06:12:21.173Z,20.48
2018-07-06T06:14:50.511Z,20.48
2018-07-06T06:17:18.896Z,20.59
2018-07-06T06:19:47.344Z,20.61
2018-07-06T06:22:15.812Z,20.43
2018-07-06T06:24:44.222Z,20.51
2018-07-06T06:27:12.652Z,20.58
2018-07-06T06:29:41.123Z,20.74
2018-07-06T06:32:10.117Z,20.68
2018-07-06T06:34:38.588Z,20.84
2018-07-06T06:37:07.035Z,20.58
2018-07-06T06:39:35.489Z,20.73
2018-07-06T06:42:03.964Z,20.81
2018-07-06T06:44:32.423Z,20.64
2018-07-06T06:47:01.056Z,20.66
2018-07-06T06:49:31.188Z,20.73
2018-07-06T06:52:00.603Z,20.91
2018-07-06T06:54:30.198Z,20.79
2018-07-06T06:56:58.654Z,21.05
2018-07-06T06:59:27.157Z,21.08
2018-07-06T07:01:55.629Z,20.88
2018-07-06T07:04:24.612Z,21.04
2018-07-06T07:06:53.180Z,20.74
2018-07-06T07:09:21.965Z,21.05
2018-07-06T07:11:50.669Z,21.01
2018-07-06T07:14:19.166Z,21.34
2018-07-06T07:16:47.652Z,21.25
2018-07-06T07:19:16.115Z,21.21
2018-07-06T07:21:44.634Z,21.81
2018-07-06T07:24:13.106Z,22.24
2018-07-06T07:26:41.571Z,22.11
2018-07-06T07:29:10.033Z,22.51
2018-07-06T07:31:38.590Z,22.65
2018-07-06T07:34:07.309Z,22.44
2018-07-06T07:36:35.842Z,22.26
2018-07-06T07:39:05.241Z,22.07
2018-07-06T07:41:33.692Z,22.42
2018-07-06T07:44:02.141Z,22.37
2018-07-06T07:46:30.829Z,22.10
2018-07-06T07:48:59.278Z,21.95
2018-07-06T07:52:11.380Z,21.92
2018-07-06T07:54:47.837Z,21.56
2018-07-06T07:57:16.503Z,21.67
2018-07-06T07:59:45.540Z,21.70
2018-07-06T08:02:13.984Z,21.72
2018-07-06T08:04:42.767Z,21.68
2018-07-06T08:07:11.223Z,22.05
2018-07-06T08:09:39.722Z,21.91
2018-07-06T08:12:08.179Z,21.73
2018-07-06T08:14:37.386Z,21.80
2018-07-06T08:17:06.255Z,21.92
2018-07-06T08:19:34.724Z,21.79
2018-07-06T08:22:03.223Z,21.95
2018-07-06T08:24:31.645Z,22.06
2018-07-06T08:27:00.124Z,21.60
2018-07-06T08:29:28.580Z,21.68
2018-07-06T08:31:57.019Z,21.73
2018-07-06T08:34:36.577Z,21.88
2018-07-06T08:37:46.477Z,21.67
2018-07-06T08:40:15.192Z,22.05
2018-07-06T08:42:45.072Z,22.17
2018-07-06T08:45:14.116Z,22.23
2018-07-06T08:47:43.375Z,22.71
2018-07-06T08:50:11.801Z,22.78
2018-07-06T08:52:41.379Z,22.65
2018-07-06T08:55:09.838Z,22.48
2018-07-06T08:57:39.164Z,22.74
2018-07-06T09:00:08.790Z,22.71
2018-07-06T09:02:37.311Z,22.73
2018-07-06T09:05:06.632Z,22.90
2018-07-06T09:07:35.120Z,22.59
2018-07-06T09:10:03.846Z,22.63
2018-07-06T09:12:32.439Z,22.82
2018-07-06T09:15:01.543Z,22.93
2018-07-06T09:17:30.122Z,22.92
2018-07-06T09:19:59.708Z,22.99
2018-07-06T09:22:27.891Z,22.69
2018-07-06T09:24:57.845Z,22.92
2018-07-06T09:27:26.308Z,22.87
2018-07-06T09:29:54.784Z,23.18
2018-07-06T09:32:23.191Z,23.11
2018-07-06T09:34:52.558Z,22.60
2018-07-06T09:37:21.017Z,22.63
2018-07-06T09:39:50.250Z,22.52
2018-07-06T09:42:19.010Z,23.04
2018-07-06T09:44:47.448Z,22.63
2018-07-06T09:47:15.998Z,22.59
2018-07-06T09:49:44.435Z,22.66
2018-07-06T09:52:12.998Z,22.62
2018-07-06T09:54:41.451Z,22.71
2018-07-06T09:57:09.872Z,22.60
2018-07-06T09:59:38.557Z,22.75
2018-07-06T10:02:07.015Z,22.67
2018-07-06T10:04:35.553Z,22.48
2018-07-06T10:07:04.038Z,22.77
2018-07-06T10:09:32.649Z,22.63
2018-07-06T10:12:01.070Z,22.29
2018-07-06T10:14:29.567Z,22.74
2018-07-06T10:16:58.275Z,22.28
2018-07-06T10:19:26.742Z,22.70
2018-07-06T10:21:55.367Z,22.98
2018-07-06T10:24:23.879Z,22.65
2018-07-06T10:26:52.320Z,23.08
2018-07-06T10:30:28.872Z,22.99
2018-07-06T10:32:57.353Z,22.67
2018-07-06T10:35:25.852Z,22.72
2018-07-06T10:37:54.582Z,22.82
2018-07-06T10:40:23.075Z,22.54
2018-07-06T10:42:51.467Z,22.75
2018-07-06T10:45:19.937Z,22.84
2018-07-06T10:47:48.354Z,22.64
2018-07-06T10:50:16.810Z,23.04
2018-07-06T10:52:45.264Z,23.08
2018-07-06T10:55:13.703Z,23.08
2018-07-06T10:57:42.267Z,23.18
2018-07-06T11:00:10.740Z,23.68
2018-07-06T11:02:39.136Z,23.80
2018-07-06T11:05:07.622Z,24.27
2018-07-06T11:07:36.084Z,23.91
2018-07-06T11:10:05.079Z,23.94
2018-07-06T11:12:33.492Z,24.39
2018-07-06T11:15:01.911Z,23.73
2018-07-06T11:17:30.372Z,24.65
2018-07-06T11:19:58.807Z,24.70
2018-07-06T11:22:27.424Z,24.44
2018-07-06T11:24:55.855Z,24.29
2018-07-06T11:27:24.287Z,24.81
2018-07-06T11:29:52.732Z,24.58
2018-07-06T11:32:21.204Z,24.69
2018-07-06T11:34:49.774Z,24.83
2018-07-06T11:37:18.723Z,24.88
2018-07-06T11:39:47.351Z,25.22
2018-07-06T11:42:16.070Z,25.35
2018-07-06T11:44:44.672Z,24.86
2018-07-06T11:47:13.094Z,25.19
2018-07-06T11:49:41.660Z,24.68
2018-07-06T11:52:10.083Z,24.79
2018-07-06T11:54:38.507Z,24.86
2018-07-06T11:57:06.915Z,24.39
2018-07-06T11:59:35.478Z,24.11
2018-07-06T12:02:03.923Z,23.95
2018-07-06T12:04:32.612Z,23.78
2018-07-06T12:07:01.011Z,23.98
2018-07-06T12:09:29.463Z,23.87
2018-07-06T12:11:57.887Z,24.07
2018-07-06T12:14:26.352Z,23.36
2018-07-06T12:16:54.780Z,23.40
2018-07-06T12:19:23.187Z,23.59
2018-07-06T12:21:51.648Z,23.35
2018-07-06T12:24:20.088Z,23.28
2018-07-06T12:26:48.503Z,23.36
2018-07-06T12:29:16.975Z,23.33
2018-07-06T12:31:45.400Z,23.30
2018-07-06T12:34:13.781Z,23.28
2018-07-06T12:36:42.251Z,23.05
2018-07-06T12:39:10.663Z,23.28
2018-07-06T12:41:39.194Z,23.29
2018-07-06T12:44:07.589Z,23.44
2018-07-06T12:46:36.034Z,23.47
2018-07-06T12:49:04.557Z,23.41
2018-07-06T12:51:33.019Z,23.44
2018-07-06T12:54:01.711Z,23.13
2018-07-06T12:56:30.151Z,23.12
2018-07-06T12:58:58.575Z,23.21
2018-07-06T13:01:27.295Z,23.18
2018-07-06T13:03:55.708Z,22.47
2018-07-06T13:06:24.119Z,22.09
2018-07-06T13:08:52.563Z,21.83
2018-07-06T13:11:20.992Z,22.07
2018-07-06T13:13:49.464Z,21.84
2018-07-06T13:16:17.899Z,21.78
2018-07-06T13:18:46.300Z,21.54
2018-07-06T13:21:14.736Z,21.50
2018-07-06T13:23:43.194Z,21.62
2018-07-06T13:26:11.613Z,21.71
2018-07-06T13:28:40.063Z,21.74
2018-07-06T13:31:08.511Z,22.14
2018-07-06T13:33:36.998Z,22.10
2018-07-06T13:36:05.596Z,22.15
2018-07-06T13:38:34.082Z,22.27
2018-07-06T13:41:02.519Z,22.00
2018-07-06T13:43:30.947Z,22.22
2018-07-06T13:46:00.765Z,22.03
2018-07-06T13:48:29.778Z,21.94
2018-07-06T13:50:58.224Z,21.80
2018-07-06T13:53:26.660Z,21.79
2018-07-06T13:55:55.084Z,21.76
2018-07-06T13:58:24.214Z,21.80
2018-07-06T14:00:52.649Z,21.89
2018-07-06T14:03:21.084Z,21.94
2018-07-06T14:05:49.559Z,21.87
2018-07-06T14:08:18.077Z,21.88
2018-07-06T14:10:46.590Z,21.77
2018-07-06T14:13:15.096Z,21.59
2018-07-06T14:15:43.543Z,21.29
2018-07-06T14:18:11.991Z,21.50
2018-07-06T14:20:40.463Z,21.32
2018-07-06T14:23:08.901Z,21.40
2018-07-06T14:25:37.678Z,21.21
2018-07-06T14:28:06.151Z,21.31
2018-07-06T14:30:34.559Z,21.43
2018-07-06T14:33:02.982Z,21.42
2018-07-06T14:35:31.640Z,21.53
2018-07-06T14:38:00.111Z,21.44
2018-07-06T14:40:28.586Z,21.51
2018-07-06T14:42:57.037Z,21.34
2018-07-06T14:45:25.521Z,21.43
2018-07-06T14:47:53.976Z,21.44
2018-07-06T14:50:22.471Z,21.41
2018-07-06T14:52:50.956Z,21.55
2018-07-06T14:55:19.497Z,21.39
2018-07-06T14:57:47.960Z,21.59
2018-07-06T15:00:16.426Z,21.46
2018-07-06T15:02:44.900Z,21.46
2018-07-06T15:05:13.356Z,21.40
2018-07-06T15:07:42.150Z,21.67
2018-07-06T15:10:11.184Z,21.75
2018-07-06T15:12:39.665Z,21.69
2018-07-06T15:15:08.120Z,22.13
2018-07-06T15:17:37.031Z,21.71
2018-07-06T15:20:05.500Z,22.49
2018-07-06T15:22:34.946Z,21.49
2018-07-06T15:25:03.517Z,21.69
2018-07-06T15:27:32.028Z,21.75
2018-07-06T15:30:00.507Z,21.46
2018-07-06T15:32:28.957Z,21.42
2018-07-06T15:34:57.399Z,21.46
2018-07-06T15:37:25.916Z,21.68
2018-07-06T15:39:54.383Z,21.48
2018-07-06T15:42:22.790Z,20.98
2018-07-06T15:44:51.264Z,20.95
2018-07-06T15:47:19.792Z,21.13
2018-07-06T15:49:48.210Z,21.25
2018-07-06T15:52:16.895Z,21.40
2018-07-06T15:54:45.333Z,21.12
2018-07-06T15:57:14.111Z,21.20
2018-07-06T15:59:42.535Z,21.36
2018-07-06T16:02:11.086Z,21.35
2018-07-06T16:04:39.595Z,21.35
2018-07-06T16:07:08.017Z,21.28
2018-07-06T16:09:36.684Z,21.38
2018-07-06T16:12:05.120Z,21.55
2018-07-06T16:14:33.559Z,21.50
2018-07-06T16:17:02.003Z,21.44
2018-07-06T16:19:30.418Z,21.61
2018-07-06T16:21:58.881Z,21.60
2018-07-06T16:24:27.360Z,21.43
2018-07-06T16:26:55.807Z,21.55
2018-07-06T16:29:24.237Z,21.48
2018-07-06T16:31:52.746Z,21.41
2018-07-06T16:34:21.180Z,21.29
2018-07-06T16:36:49.677Z,21.34
2018-07-06T16:39:18.295Z,21.37
2018-07-06T16:41:46.720Z,21.42
2018-07-06T16:44:15.158Z,21.42
2018-07-06T16:46:44.411Z,21.29
2018-07-06T16:49:12.835Z,21.27
2018-07-06T16:51:41.319Z,21.30
2018-07-06T16:54:09.725Z,21.01
2018-07-06T16:56:38.187Z,20.98
2018-07-06T16:59:06.874Z,20.89
2018-07-06T17:01:35.296Z,20.98
2018-07-06T17:04:04.006Z,20.82
2018-07-06T17:06:32.446Z,20.68
2018-07-06T17:09:01.272Z,20.65
2018-07-06T17:11:30.017Z,20.62
2018-07-06T17:13:58.439Z,20.71
2018-07-06T17:16:26.936Z,20.59
2018-07-06T17:18:55.339Z,20.61
2018-07-06T17:21:23.804Z,20.51
2018-07-06T17:23:52.643Z,20.63
2018-07-06T17:26:21.384Z,20.40
2018-07-06T17:28:49.935Z,20.38
2018-07-06T17:31:18.568Z,20.36
2018-07-06T17:33:47.228Z,20.27
2018-07-06T17:36:15.643Z,20.29
2018-07-06T17:38:44.067Z,20.25
2018-07-06T17:41:12.765Z,20.15
2018-07-06T17:43:41.197Z,20.10
2018-07-06T17:46:09.643Z,20.08
2018-07-06T17:48:38.132Z,20.08
2018-07-06T17:51:06.748Z,19.85
2018-07-06T17:53:35.292Z,19.81
2018-07-06T17:56:03.755Z,19.72
2018-07-06T17:58:32.201Z,19.67
2018-07-06T18:01:00.860Z,19.62
2018-07-06T18:03:29.315Z,19.61
2018-07-06T18:05:58.079Z,19.55
2018-07-06T18:08:26.703Z,19.36
2018-07-06T18:10:55.394Z,19.27
2018-07-06T18:13:23.835Z,19.19
2018-07-06T18:15:52.286Z,19.21
2018-07-06T18:18:21.081Z,19.12
2018-07-06T18:20:49.633Z,19.30
2018-07-06T18:23:18.220Z,19.18
2018-07-06T18:25:47.002Z,19.23
2018-07-06T18:28:15.459Z,19.01
2018-07-06T18:30:44.095Z,19.14
2018-07-06T18:33:12.567Z,18.92
2018-07-06T18:35:40.963Z,19.02
2018-07-06T18:38:09.416Z,18.90
2018-07-06T18:40:37.890Z,18.85
2018-07-06T18:43:06.336Z,18.82
2018-07-06T18:45:34.842Z,18.85
2018-07-06T18:48:03.312Z,18.97
2018-07-06T18:50:31.763Z,18.99
2018-07-06T18:53:00.500Z,18.82
2018-07-06T18:55:28.964Z,18.82
2018-07-06T18:57:57.384Z,18.95
2018-07-06T19:00:26.203Z,19.08
2018-07-06T19:02:54.711Z,18.96
2018-07-06T19:06:26.039Z,18.94
2018-07-06T19:08:54.548Z,18.78
2018-07-06T19:11:22.984Z,18.98
2018-07-06T19:13:51.427Z,18.80
2018-07-06T19:16:19.866Z,18.81
2018-07-06T19:18:48.428Z,18.85
2018-07-06T19:21:16.904Z,18.79
2018-07-06T19:23:45.370Z,19.23
2018-07-06T19:26:13.830Z,18.78
2018-07-06T19:28:42.295Z,18.86
2018-07-06T19:31:10.754Z,18.86
2018-07-06T19:33:39.647Z,18.79
2018-07-06T19:36:08.088Z,18.94
2018-07-06T19:38:36.727Z,18.93
2018-07-06T19:41:06.023Z,19.90
2018-07-06T19:43:34.723Z,19.00
2018-07-06T19:46:03.385Z,19.24
2018-07-06T19:48:32.766Z,19.96
2018-07-06T19:51:01.418Z,19.98
2018-07-06T19:53:29.816Z,19.96
2018-07-06T19:55:58.243Z,20.01
2018-07-06T19:58:26.819Z,19.92
2018-07-06T20:00:55.224Z,19.89
2018-07-06T20:03:23.627Z,19.87
2018-07-06T20:05:52.031Z,19.28
2018-07-06T20:08:20.447Z,20.09
2018-07-06T20:10:48.918Z,19.96
2018-07-06T20:13:17.414Z,20.12
2018-07-06T20:15:45.848Z,20.05
2018-07-06T20:18:14.293Z,20.04
2018-07-06T20:20:42.765Z,20.12
2018-07-06T20:23:11.967Z,19.98
2018-07-06T20:25:40.420Z,20.13
2018-07-06T20:28:08.971Z,20.05
2018-07-06T20:30:37.386Z,19.87
2018-07-06T20:33:05.825Z,19.75
2018-07-06T20:35:34.247Z,20.01
2018-07-06T20:38:02.696Z,19.81
2018-07-06T20:40:31.139Z,19.75
2018-07-06T20:42:59.546Z,19.77
2018-07-06T20:45:27.992Z,19.84
2018-07-06T20:47:56.415Z,19.75
2018-07-06T20:50:24.848Z,19.61
2018-07-06T20:52:53.954Z,19.56
2018-07-06T20:55:22.377Z,19.66
2018-07-06T20:57:50.810Z,19.52
2018-07-06T21:00:19.305Z,19.46
2018-07-06T21:02:47.751Z,19.51
2018-07-06T21:05:17.088Z,19.44
2018-07-06T21:07:45.487Z,19.46
2018-07-06T21:10:14.248Z,19.51
2018-07-06T21:12:42.681Z,19.49
2018-07-06T21:15:11.145Z,19.53
2018-07-06T21:17:39.570Z,19.61
2018-07-06T21:20:08.018Z,19.69
2018-07-06T21:22:36.463Z,19.57
2018-07-06T21:25:05.109Z,19.66
2018-07-06T21:27:33.536Z,19.47
2018-07-06T21:30:02.190Z,19.50
2018-07-06T21:32:30.681Z,19.63
2018-07-06T21:34:59.134Z,19.70
2018-07-06T21:37:27.584Z,19.55
2018-07-06T21:39:56.027Z,19.66
2018-07-06T21:42:24.460Z,19.64
2018-07-06T21:44:53.337Z,19.93
2018-07-06T21:47:22.123Z,19.80
2018-07-06T21:49:50.565Z,19.79
2018-07-06T21:52:19.024Z,19.74
2018-07-06T21:54:47.431Z,19.70
2018-07-06T21:57:15.893Z,19.77
2018-07-06T21:59:44.324Z,19.81
2018-07-06T22:02:16.007Z,19.78
2018-07-06T22:04:46.223Z,19.69
2018-07-06T22:07:16.452Z,19.90
2018-07-06T22:09:45.427Z,19.91
2018-07-06T22:12:14.722Z,20.03
2018-07-06T22:14:43.147Z,19.98
2018-07-06T22:17:11.615Z,20.04
2018-07-06T22:19:40.048Z,19.94
2018-07-06T22:22:08.503Z,20.21
2018-07-06T22:24:37.287Z,20.13
2018-07-06T22:27:06.164Z,20.15
2018-07-06T22:29:34.576Z,19.97
2018-07-06T22:32:03.044Z,19.97
2018-07-06T22:34:31.647Z,19.83
2018-07-06T22:37:00.080Z,19.96
2018-07-06T22:39:29.212Z,19.61
2018-07-06T22:41:57.664Z,19.74
2018-07-06T22:44:26.115Z,19.71
2018-07-06T22:46:54.559Z,19.55
2018-07-06T22:49:23.006Z,19.56
2018-07-06T22:52:54.049Z,19.64
2018-07-06T22:55:22.508Z,19.56
2018-07-06T22:57:50.978Z,19.56
2018-07-06T23:00:19.461Z,19.52
2018-07-06T23:02:48.179Z,19.49
2018-07-06T23:05:18.960Z,19.46
2018-07-06T23:07:47.700Z,19.50
2018-07-06T23:10:16.159Z,19.53
2018-07-06T23:12:44.629Z,19.59
2018-07-06T23:15:13.091Z,19.68
2018-07-06T23:17:41.485Z,19.53
2018-07-06T23:20:09.956Z,19.56
2018-07-06T23:23:12.977Z,19.68
2018-07-06T23:25:42.880Z,19.51
2018-07-06T23:28:11.413Z,19.67
2018-07-06T23:30:40.025Z,19.60
2018-07-06T23:33:09.555Z,19.81
2018-07-06T23:35:37.984Z,19.75
2018-07-06T23:38:06.488Z,19.82
2018-07-06T23:40:35.031Z,19.84
2018-07-06T23:43:03.516Z,19.82
2018-07-06T23:45:31.980Z,19.77
2018-07-06T23:48:00.463Z,19.73
2018-07-06T23:50:28.904Z,19.81
2018-07-06T23:52:57.328Z,19.92
2018-07-06T23:55:25.796Z,19.80
2018-07-06T23:57:54.247Z,19.79
